Time;durP1;ratioP1;P1;durP2;ratioP2;P2;SDS_P1;SDS_P2;PMS_P1;PMS_P2;Temp;Humidity;BMP_temperature;BMP_pressure;BME280_temperature;BME280_humidity;BME280_pressure;Samples;Min_cycle;Max_cycle;Signal;HPM_P1;HPM_P2
2023/08/20 00:00:37;;;;;;;;;;;22.40;99.90;;;;;;2603667;54;20038;31
2023/08/20 00:03:14;;;;;;;16.30;14.77;;;22.30;99.90;;;;;;2621975;46;19938;31
2023/08/20 00:05:52;;;;;;;15.95;14.35;;;22.30;99.90;;;;;;2603619;54;20046;31
2023/08/20 00:08:25;;;;;;;17.10;15.27;;;22.20;99.90;;;;;;2702106;39;21019;31
2023/08/20 00:11:00;;;;;;;17.80;14.95;;;22.20;99.90;;;;;;2621921;46;20029;31
2023/08/20 00:13:35;;;;;;;14.60;13.20;;;22.20;99.90;;;;;;2621899;46;20045;31
2023/08/20 00:16:11;;;;;;;14.43;12.90;;;22.20;99.90;;;;;;2621691;46;20884;31
2023/08/20 00:18:49;;;;;;;13.25;11.95;;;22.20;99.90;;;;;;2603239;54;20031;31
2023/08/20 00:21:23;;;;;;;14.55;13.15;;;22.20;99.90;;;;;;2621618;47;20029;31
2023/08/20 00:24:01;;;;;;;17.45;14.95;;;22.20;99.90;;;;;;2701820;39;21481;31
2023/08/20 00:26:37;;;;;;;20.80;15.68;;;22.20;99.90;;;;;;2621688;46;20027;31
2023/08/20 00:29:12;;;;;;;17.10;14.95;;;22.20;99.90;;;;;;2622181;46;20069;31
2023/08/20 00:31:47;;;;;;;21.25;19.10;;;22.20;99.90;;;;;;2603488;54;20038;31
2023/08/20 00:34:22;;;;;;;16.55;14.95;;;22.10;99.90;;;;;;2603293;54;20075;31
2023/08/20 00:36:57;;;;;;;18.65;14.30;;;22.10;99.90;;;;;;2603680;54;20034;31
2023/08/20 00:39:35;;;;;;;19.55;17.55;;;22.20;99.90;;;;;;2603376;54;21559;31
2023/08/20 00:42:10;;;;;;;15.73;14.18;;;22.10;99.90;;;;;;2603357;54;20489;31
2023/08/20 00:44:46;;;;;;;17.90;16.10;;;22.00;99.90;;;;;;2603306;54;20033;31
2023/08/20 00:47:21;;;;;;;15.82;14.20;;;22.00;99.90;;;;;;2603430;54;20337;31
2023/08/20 00:49:56;;;;;;;15.35;13.75;;;22.00;99.90;;;;;;2603059;54;20745;31
2023/08/20 00:52:31;;;;;;;15.00;13.47;;;22.00;99.90;;;;;;2603184;54;20029;31
2023/08/20 00:55:11;;;;;;;16.33;14.63;;;21.90;99.90;;;;;;2603144;54;20831;31
2023/08/20 00:57:46;;;;;;;16.75;15.02;;;21.80;99.90;;;;;;2603325;54;20030;31
2023/08/20 01:00:21;;;;;;;14.32;12.85;;;21.80;99.90;;;;;;2603083;54;20869;31
2023/08/20 01:02:56;;;;;;;14.05;12.65;;;21.80;99.90;;;;;;2603291;54;20033;31
2023/08/20 01:05:32;;;;;;;15.20;13.80;;;21.90;99.90;;;;;;2603273;54;21572;31
2023/08/20 01:08:14;;;;;;;;;;;21.80;99.90;;;;;;2603609;54;20103;31
2023/08/20 01:10:55;;;;;;;17.85;15.82;;;21.80;99.90;;;;;;2603071;54;19938;31
2023/08/20 01:13:30;;;;;;;23.48;16.77;;;21.70;99.90;;;;;;2720468;39;21442;31
2023/08/20 01:16:05;;;;;;;20.55;16.55;;;21.60;99.90;;;;;;2782755;31;20085;31
2023/08/20 01:18:40;;;;;;;17.30;15.05;;;21.60;99.90;;;;;;2621829;47;20050;31
2023/08/20 01:21:22;;;;;;;19.95;18.10;;;21.60;99.90;;;;;;2603275;54;20111;31
2023/08/20 01:24:08;;;;;;;21.10;19.02;;;21.60;99.90;;;;;;2603143;54;20041;31
2023/08/20 01:27:04;;;;;;;19.30;17.40;;;21.50;99.90;;;;;;2621531;47;20026;31
2023/08/20 01:29:41;;;;;;;19.27;16.67;;;21.50;99.90;;;;;;2603095;54;20026;31
2023/08/20 01:32:15;;;;;;;17.63;15.10;;;21.50;99.90;;;;;;2603747;54;20026;31
2023/08/20 01:34:50;;;;;;;19.23;17.17;;;21.50;99.90;;;;;;2604010;54;20053;31
2023/08/20 01:37:27;;;;;;;17.20;14.70;;;21.40;99.90;;;;;;2603925;54;20033;31
2023/08/20 01:40:03;;;;;;;17.77;15.80;;;21.40;99.90;;;;;;2603921;54;20255;31
2023/08/20 01:42:38;;;;;;;19.50;17.52;;;21.40;99.90;;;;;;2603936;54;20031;31
2023/08/20 01:45:15;;;;;;;22.13;19.60;;;21.40;99.90;;;;;;2603914;54;19941;31
2023/08/20 01:47:50;;;;;;;21.38;18.88;;;21.40;99.90;;;;;;2622388;46;21121;31
2023/08/20 01:50:25;;;;;;;22.60;20.20;;;21.30;99.90;;;;;;2603929;54;20115;31
2023/08/20 01:52:59;;;;;;;21.90;19.60;;;21.30;99.90;;;;;;2702285;39;20519;31
2023/08/20 01:55:36;;;;;;;21.25;18.95;;;21.30;99.90;;;;;;2721029;39;20728;31
2023/08/20 01:58:11;;;;;;;22.85;18.30;;;21.30;99.90;;;;;;2603777;54;20030;31
2023/08/20 02:00:49;;;;;;;19.55;17.40;;;21.30;99.90;;;;;;2603738;54;20896;31
2023/08/20 02:03:23;;;;;;;17.45;15.48;;;21.30;99.90;;;;;;2621963;46;20091;31
2023/08/20 02:05:58;;;;;;;19.20;17.40;;;21.20;99.90;;;;;;2603705;54;21249;31
2023/08/20 02:08:33;;;;;;;18.30;16.60;;;21.20;99.90;;;;;;2603799;54;20033;31
2023/08/20 02:11:08;;;;;;;18.73;17.00;;;21.20;99.90;;;;;;2603920;54;20273;31
2023/08/20 02:13:41;;;;;;;18.75;16.65;;;21.10;99.90;;;;;;2603834;54;20018;31
2023/08/20 02:16:19;;;;;;;16.40;14.82;;;21.10;99.90;;;;;;2603525;54;20883;31
2023/08/20 02:18:53;;;;;;;14.85;13.45;;;21.10;99.90;;;;;;2603546;54;20022;31
2023/08/20 02:21:30;;;;;;;15.40;13.90;;;21.00;99.90;;;;;;2603538;54;20084;31
2023/08/20 02:24:04;;;;;;;16.35;14.65;;;21.10;99.90;;;;;;2621368;46;20660;31
2023/08/20 02:26:39;;;;;;;18.83;16.35;;;21.00;99.90;;;;;;2603735;54;20812;31
2023/08/20 02:29:14;;;;;;;17.17;15.18;;;21.00;99.90;;;;;;2603873;54;20897;31
2023/08/20 02:31:51;;;;;;;16.92;15.25;;;21.00;99.90;;;;;;2603777;54;20053;31
2023/08/20 02:34:26;;;;;;;15.35;13.80;;;21.00;99.90;;;;;;2603708;54;20026;31
2023/08/20 02:37:01;;;;;;;15.15;13.75;;;21.00;99.90;;;;;;2603686;54;20033;31
2023/08/20 02:39:36;;;;;;;17.75;15.88;;;20.90;99.90;;;;;;2621744;46;20023;31
2023/08/20 02:42:11;;;;;;;18.52;16.73;;;20.90;99.90;;;;;;2603477;54;20030;31
2023/08/20 02:44:45;;;;;;;19.77;17.88;;;20.90;99.90;;;;;;2622120;46;20042;31
2023/08/20 02:47:22;;;;;;;17.67;15.98;;;20.90;99.90;;;;;;2603685;54;20030;31
2023/08/20 02:49:56;;;;;;;14.30;12.80;;;20.80;99.90;;;;;;2603524;54;20569;31
2023/08/20 02:52:29;;;;;;;15.82;14.32;;;20.80;99.90;;;;;;2602696;54;20018;31
2023/08/20 02:55:04;;;;;;;20.20;16.13;;;20.80;99.90;;;;;;2701856;39;21427;31
2023/08/20 02:57:39;;;;;;;16.48;14.80;;;20.80;99.90;;;;;;2603387;54;20061;31
2023/08/20 03:00:13;;;;;;;14.83;13.23;;;20.80;99.90;;;;;;2632678;54;20007;-91
2023/08/20 03:02:47;;;;;;;19.42;17.42;;;20.80;99.90;;;;;;2603350;54;20027;31
2023/08/20 03:05:21;;;;;;;15.90;14.27;;;20.80;99.90;;;;;;2622074;46;20042;31
2023/08/20 03:07:56;;;;;;;15.45;13.98;;;20.70;99.90;;;;;;2603685;54;20022;31
2023/08/20 03:10:31;;;;;;;17.57;15.87;;;20.70;99.90;;;;;;2603535;54;20022;31
2023/08/20 03:13:06;;;;;;;15.70;14.20;;;20.70;99.90;;;;;;2603599;54;20030;31
2023/08/20 03:15:41;;;;;;;14.37;12.87;;;20.70;99.90;;;;;;2603580;54;21032;31
2023/08/20 03:18:19;;;;;;;17.30;15.70;;;20.60;99.90;;;;;;2603667;54;20031;31
2023/08/20 03:20:53;;;;;;;19.55;16.50;;;20.60;99.90;;;;;;2603531;54;20027;31
2023/08/20 03:23:28;;;;;;;16.13;13.57;;;20.60;99.90;;;;;;2621679;46;20053;31
2023/08/20 03:26:03;;;;;;;15.30;13.70;;;20.50;99.90;;;;;;2603559;54;20115;31
2023/08/20 03:28:38;;;;;;;16.37;14.57;;;20.50;99.90;;;;;;2603530;54;20277;31
2023/08/20 03:31:13;;;;;;;15.88;14.27;;;20.50;99.90;;;;;;2621637;46;20026;31
2023/08/20 03:33:51;;;;;;;17.33;15.63;;;20.50;99.90;;;;;;2603464;54;20033;31
2023/08/20 03:36:27;;;;;;;15.65;14.10;;;20.40;99.90;;;;;;2621976;46;20026;31
2023/08/20 03:39:03;;;;;;;17.02;15.32;;;20.40;99.90;;;;;;2603556;54;20050;31
2023/08/20 03:41:38;;;;;;;16.58;13.95;;;20.40;99.90;;;;;;2603487;54;20023;31
2023/08/20 03:44:13;;;;;;;14.48;13.13;;;20.40;99.90;;;;;;2621755;46;20927;31
2023/08/20 03:46:48;;;;;;;16.55;14.85;;;20.40;99.90;;;;;;2603417;54;20056;31
2023/08/20 03:49:24;;;;;;;;;;;20.40;99.90;;;;;;2603726;54;20022;31
2023/08/20 03:52:01;;;;;;;21.15;18.95;;;20.40;99.90;;;;;;2621958;46;20008;31
2023/08/20 03:54:36;;;;;;;16.92;15.25;;;20.40;99.90;;;;;;2602893;54;20046;31
2023/08/20 03:57:11;;;;;;;17.80;16.03;;;20.30;99.90;;;;;;2603395;54;20773;31
2023/08/20 03:59:45;;;;;;;20.50;18.40;;;20.30;99.90;;;;;;2621683;46;20331;31
2023/08/20 04:02:20;;;;;;;23.27;20.98;;;20.30;99.90;;;;;;2621876;46;20033;31
2023/08/20 04:05:02;;;;;;;19.95;17.83;;;20.30;99.90;;;;;;2603478;54;20156;31
2023/08/20 04:07:37;;;;;;;17.15;15.45;;;20.30;99.90;;;;;;2621668;46;20037;31
2023/08/20 04:10:12;;;;;;;19.07;17.37;;;20.30;99.90;;;;;;2603650;54;20022;31
2023/08/20 04:12:47;;;;;;;20.40;18.30;;;20.30;99.90;;;;;;2622157;46;20267;31
2023/08/20 04:15:22;;;;;;;18.50;16.70;;;20.30;99.90;;;;;;2621854;46;20034;31
2023/08/20 04:17:57;;;;;;;18.60;16.80;;;20.40;99.90;;;;;;2603351;54;20052;31
2023/08/20 04:20:35;;;;;;;21.38;17.27;;;20.40;99.90;;;;;;2603541;54;20030;31
2023/08/20 04:23:10;;;;;;;19.67;17.65;;;20.50;99.90;;;;;;2621461;46;20026;31
2023/08/20 04:25:45;;;;;;;18.30;16.50;;;20.60;99.90;;;;;;2720105;39;21473;31
2023/08/20 04:28:22;;;;;;;23.03;20.63;;;20.70;99.90;;;;;;2603540;54;20022;31
2023/08/20 04:30:57;;;;;;;23.13;20.87;;;20.80;99.90;;;;;;2603213;54;20034;31
2023/08/20 04:33:39;;;;;;;21.90;19.70;;;20.80;99.90;;;;;;2603251;54;20076;31
2023/08/20 04:36:17;;;;;;;19.60;17.65;;;20.90;99.90;;;;;;2603198;54;20026;31
2023/08/20 04:38:51;;;;;;;19.80;17.83;;;21.20;99.90;;;;;;2621976;46;20108;31
2023/08/20 04:41:26;;;;;;;21.43;18.73;;;21.30;99.90;;;;;;2603269;54;20031;31
2023/08/20 04:44:01;;;;;;;19.48;17.23;;;21.40;99.90;;;;;;2603306;54;20023;31
2023/08/20 04:46:36;;;;;;;20.35;18.45;;;21.60;99.90;;;;;;2603157;54;20143;31
2023/08/20 04:49:11;;;;;;;20.23;18.30;;;21.80;99.90;;;;;;2621974;46;20026;31
2023/08/20 04:51:48;;;;;;;19.70;17.80;;;21.90;99.90;;;;;;2603190;54;20237;31
2023/08/20 04:54:24;;;;;;;20.25;18.27;;;22.10;99.90;;;;;;2603139;54;20906;31
2023/08/20 04:56:59;;;;;;;20.60;18.70;;;22.20;99.90;;;;;;2621590;46;20077;31
2023/08/20 04:59:35;;;;;;;19.80;17.58;;;22.30;99.90;;;;;;2621716;47;20053;31
2023/08/20 05:02:10;;;;;;;20.13;18.20;;;22.60;99.90;;;;;;2621890;47;20042;31
2023/08/20 05:04:52;;;;;;;21.83;19.75;;;22.70;99.90;;;;;;2621741;47;20022;31
2023/08/20 05:07:25;;;;;;;19.40;17.55;;;22.90;99.90;;;;;;2603757;54;20037;31
2023/08/20 05:10:04;;;;;;;21.45;19.00;;;23.10;99.90;;;;;;2604127;54;20045;31
2023/08/20 05:12:39;;;;;;;19.55;16.75;;;23.30;99.90;;;;;;2603854;54;20054;31
2023/08/20 05:15:17;;;;;;;19.33;17.35;;;23.50;99.90;;;;;;2622448;46;20057;31
2023/08/20 05:17:52;;;;;;;19.63;17.83;;;23.70;99.90;;;;;;2604159;54;20030;31
2023/08/20 05:20:27;;;;;;;18.77;17.00;;;23.90;99.90;;;;;;2604011;54;19941;31
2023/08/20 05:23:03;;;;;;;19.40;17.50;;;24.10;99.90;;;;;;2603894;54;20038;31
2023/08/20 05:25:40;;;;;;;17.90;16.10;;;24.30;99.90;;;;;;2622360;46;20268;31
2023/08/20 05:28:15;;;;;;;18.30;16.40;;;24.40;99.90;;;;;;2604147;54;20244;31
2023/08/20 05:30:57;;;;;;;17.52;15.98;;;24.60;99.90;;;;;;2603841;54;20897;31
2023/08/20 05:33:32;;;;;;;18.73;16.93;;;24.70;99.90;;;;;;2603790;54;20071;31
2023/08/20 05:36:08;;;;;;;21.85;19.73;;;24.90;99.90;;;;;;2622422;46;20789;31
2023/08/20 05:38:44;;;;;;;20.17;18.38;;;25.00;99.90;;;;;;2603780;54;20071;31
2023/08/20 05:41:21;;;;;;;17.63;15.93;;;25.00;99.90;;;;;;2603995;54;20032;31
2023/08/20 05:43:55;;;;;;;20.67;18.52;;;25.10;99.90;;;;;;2622272;46;20042;31
2023/08/20 05:46:30;;;;;;;19.65;17.80;;;25.30;99.90;;;;;;2603859;54;20042;31
2023/08/20 05:49:05;;;;;;;17.85;16.25;;;25.50;99.90;;;;;;2603675;54;20031;31
2023/08/20 05:51:42;;;;;;;20.80;18.70;;;25.60;99.90;;;;;;2603848;54;20856;31
2023/08/20 05:54:17;;;;;;;22.20;20.00;;;25.80;99.90;;;;;;2603547;54;20921;31
2023/08/20 05:56:55;;;;;;;21.97;19.77;;;25.90;99.90;;;;;;2603892;54;20838;31
2023/08/20 05:59:29;;;;;;;21.00;19.00;;;26.00;99.90;;;;;;2603758;54;20271;31
2023/08/20 06:02:04;;;;;;;18.85;17.20;;;26.20;99.90;;;;;;2603678;54;20027;31
2023/08/20 06:04:38;;;;;;;20.52;18.52;;;26.40;99.90;;;;;;2603616;54;20916;31
2023/08/20 06:07:12;;;;;;;18.17;16.48;;;26.60;99.90;;;;;;2621978;46;20053;31
2023/08/20 06:09:47;;;;;;;18.23;16.60;;;26.80;99.90;;;;;;2603608;54;19934;31
2023/08/20 06:12:25;;;;;;;16.60;15.10;;;27.00;99.90;;;;;;2603760;54;20569;31
2023/08/20 06:14:59;;;;;;;17.33;15.00;;;27.30;99.90;;;;;;2603752;54;20029;31
2023/08/20 06:17:34;;;;;;;16.25;14.27;;;27.50;99.90;;;;;;2696814;39;20269;31
2023/08/20 06:20:11;;;;;;;16.90;13.82;;;27.70;99.90;;;;;;2622223;46;20046;31
2023/08/20 06:22:46;;;;;;;16.42;14.75;;;27.90;99.90;;;;;;2621946;46;20057;31
2023/08/20 06:25:21;;;;;;;14.27;12.90;;;28.00;99.90;;;;;;2622222;46;20037;31
2023/08/20 06:27:59;;;;;;;15.90;12.47;;;28.20;99.90;;;;;;2603703;54;20834;31
2023/08/20 06:30:33;;;;;;;12.50;11.40;;;28.40;99.90;;;;;;2603799;54;20274;31
2023/08/20 06:33:08;;;;;;;16.38;11.82;;;28.50;99.90;;;;;;2622121;46;20068;31
2023/08/20 06:35:42;;;;;;;12.90;11.60;;;28.70;99.90;;;;;;2603686;54;20946;31
2023/08/20 06:38:17;;;;;;;12.93;11.57;;;28.80;99.90;;;;;;2702254;39;20745;31
2023/08/20 06:40:53;;;;;;;12.85;11.55;;;29.10;99.90;;;;;;2603906;54;20045;31
2023/08/20 06:43:29;;;;;;;12.40;11.10;;;29.30;99.90;;;;;;2603720;54;20109;31
2023/08/20 06:46:06;;;;;;;13.82;10.38;;;29.50;99.90;;;;;;2603652;54;20030;31
2023/08/20 06:48:41;;;;;;;12.50;11.30;;;29.80;99.90;;;;;;2603675;54;20030;31
2023/08/20 06:51:16;;;;;;;11.85;10.75;;;30.00;99.90;;;;;;2702058;39;21511;31
2023/08/20 06:53:51;;;;;;;11.02;9.93;;;30.20;99.90;;;;;;2603588;54;20026;31
2023/08/20 06:56:25;;;;;;;12.70;9.90;;;30.30;99.90;;;;;;2603834;54;20030;31
2023/08/20 06:59:03;;;;;;;10.80;9.75;;;30.50;99.90;;;;;;2622278;46;20842;31
2023/08/20 07:01:37;;;;;;;10.97;9.97;;;30.50;99.90;;;;;;2702186;39;20484;31
2023/08/20 07:04:12;;;;;;;13.30;9.25;;;30.60;99.90;;;;;;2603397;54;20035;31
2023/08/20 07:06:47;;;;;;;10.60;9.50;;;30.60;99.90;;;;;;2603445;54;20092;31
2023/08/20 07:09:22;;;;;;;11.30;10.15;;;30.90;99.90;;;;;;2702030;39;21544;31
2023/08/20 07:11:59;;;;;;;10.70;9.70;;;31.20;99.90;;;;;;2603377;54;20081;31
2023/08/20 07:14:38;;;;;;;10.25;9.32;;;31.30;99.90;;;;;;2603464;54;20987;31
2023/08/20 07:17:12;;;;;;;9.38;8.32;;;31.40;99.90;;;;;;2603546;54;20033;31
2023/08/20 07:19:46;;;;;;;10.25;9.25;;;31.70;99.90;;;;;;2603445;54;21585;31
2023/08/20 07:22:21;;;;;;;10.03;9.13;;;31.70;99.90;;;;;;2603513;54;20045;31
2023/08/20 07:24:55;;;;;;;10.10;9.10;;;31.80;99.90;;;;;;2603729;54;20030;31
2023/08/20 07:27:32;;;;;;;10.35;9.30;;;31.90;99.90;;;;;;2720774;39;21448;31
2023/08/20 07:30:11;;;;;;;9.05;8.25;;;31.70;99.90;;;;;;2603374;54;20113;31
2023/08/20 07:32:45;;;;;;;9.60;8.70;;;31.60;99.90;;;;;;2603480;54;20828;31
2023/08/20 07:35:20;;;;;;;10.20;9.00;;;31.70;99.90;;;;;;2603322;54;20908;31
2023/08/20 07:37:55;;;;;;;10.98;9.63;;;31.70;99.90;;;;;;2603454;54;19999;31
2023/08/20 07:40:31;;;;;;;9.45;8.65;;;31.90;99.90;;;;;;2603441;54;20871;31
2023/08/20 07:43:08;;;;;;;9.50;8.57;;;32.10;99.90;;;;;;2621614;46;20053;31
2023/08/20 07:45:46;;;;;;;10.10;9.00;;;32.40;99.90;;;;;;2603467;54;20022;31
2023/08/20 07:48:20;;;;;;;9.10;8.25;;;32.50;99.90;;;;;;2603526;54;20061;31
2023/08/20 07:50:54;;;;;;;11.05;8.98;;;32.60;99.90;;;;;;2603329;54;20049;31
2023/08/20 07:53:29;;;;;;;9.60;8.32;;;32.80;99.90;;;;;;2603360;54;20045;31
2023/08/20 07:56:04;;;;;;;8.88;7.97;;;32.90;99.90;;;;;;2603439;54;21611;31
2023/08/20 07:58:39;;;;;;;10.82;9.25;;;33.10;99.90;;;;;;2622250;46;20038;31
2023/08/20 08:01:17;;;;;;;9.70;8.35;;;33.20;99.90;;;;;;2621666;46;20027;31
2023/08/20 08:03:51;;;;;;;10.53;7.50;;;33.30;99.90;;;;;;2603381;54;20089;31
2023/08/20 08:06:26;;;;;;;7.57;6.87;;;33.40;99.90;;;;;;2701912;39;21503;31
2023/08/20 08:09:22;;;;;;;7.97;7.15;;;33.40;99.90;;;;;;2603508;54;20271;31
2023/08/20 08:11:56;;;;;;;;;;;33.50;99.90;;;;;;2603785;54;20053;31
2023/08/20 08:14:31;;;;;;;8.47;7.67;;;33.70;99.90;;;;;;2702011;39;21411;31
2023/08/20 08:17:08;;;;;;;;;;;33.90;99.90;;;;;;2603721;54;20736;31
2023/08/20 08:19:43;;;;;;;8.35;7.35;;;34.00;99.90;;;;;;2621912;46;19950;31
2023/08/20 08:22:17;;;;;;;7.95;7.25;;;34.20;99.90;;;;;;2603363;54;20067;31
2023/08/20 08:24:52;;;;;;;7.67;6.90;;;34.30;99.90;;;;;;2603368;54;20921;31
2023/08/20 08:27:27;;;;;;;9.13;7.72;;;34.50;99.90;;;;;;2603184;54;20034;31
2023/08/20 08:30:01;;;;;;;8.10;7.40;;;34.50;99.90;;;;;;2622038;46;20551;31
2023/08/20 08:32:41;;;;;;;11.27;6.77;;;34.70;99.90;;;;;;2603538;54;20026;31
2023/08/20 08:35:19;;;;;;;7.85;6.50;;;34.80;99.90;;;;;;2603302;54;20898;31
2023/08/20 08:37:53;;;;;;;10.55;7.00;;;35.00;99.90;;;;;;2603349;54;20038;31
2023/08/20 08:40:28;;;;;;;7.50;6.50;;;35.20;99.90;;;;;;2603105;54;20038;31
2023/08/20 08:43:03;;;;;;;6.50;5.60;;;35.50;99.90;;;;;;2603305;54;20920;31
2023/08/20 08:45:37;;;;;;;;;;;35.70;99.90;;;;;;2603484;54;20642;31
2023/08/20 08:48:15;;;;;;;6.10;5.50;;;35.80;99.90;;;;;;2603223;54;20826;31
2023/08/20 08:50:47;;;;;;;6.00;5.40;;;35.90;99.90;;;;;;2603616;54;21200;31
2023/08/20 08:53:22;;;;;;;6.10;5.60;;;35.70;99.90;;;;;;2603196;54;20908;31
2023/08/20 08:55:56;;;;;;;;;;;35.40;99.90;;;;;;2720818;39;21496;31
2023/08/20 08:58:31;;;;;;;7.15;6.30;;;35.00;99.90;;;;;;2603368;54;20820;31
2023/08/20 09:01:06;;;;;;;8.80;7.25;;;34.50;99.90;;;;;;2621569;47;20850;31
2023/08/20 09:03:44;;;;;;;8.68;6.80;;;34.20;99.90;;;;;;2621721;47;20095;31
2023/08/20 09:06:17;;;;;;;7.28;6.68;;;33.90;99.90;;;;;;2701857;39;21480;31
2023/08/20 09:08:52;;;;;;;7.60;6.88;;;33.50;99.90;;;;;;2621847;47;20592;31
2023/08/20 09:11:36;;;;;;;7.60;7.00;;;33.20;99.90;;;;;;2701733;39;20392;31
2023/08/20 09:14:11;;;;;;;7.65;6.95;;;32.80;99.90;;;;;;2621720;47;20037;31
2023/08/20 09:16:47;;;;;;;8.30;7.35;;;32.50;99.90;;;;;;2773051;31;20514;31
2023/08/20 09:19:22;;;;;;;9.30;7.45;;;32.20;99.90;;;;;;2603309;54;21169;31
2023/08/20 09:21:56;;;;;;;9.20;7.05;;;32.10;99.90;;;;;;2603010;54;20034;31
2023/08/20 09:24:36;;;;;;;7.97;6.68;;;31.90;99.90;;;;;;2621655;47;20251;31
2023/08/20 09:27:10;;;;;;;12.30;7.30;;;31.80;99.90;;;;;;2701600;39;20416;31
2023/08/20 09:29:50;;;;;;;7.50;6.85;;;31.60;99.90;;;;;;2603253;54;20797;31
2023/08/20 09:32:24;;;;;;;6.65;6.15;;;31.40;99.90;;;;;;2621259;47;20019;31
2023/08/20 09:35:02;;;;;;;8.25;6.40;;;31.30;99.90;;;;;;2603134;54;20030;31
2023/08/20 09:37:36;;;;;;;7.28;6.60;;;31.20;99.90;;;;;;2620912;47;20860;31
2023/08/20 09:40:10;;;;;;;;;;;31.00;99.90;;;;;;2701768;39;20420;31
2023/08/20 09:42:44;;;;;;;7.47;6.77;;;31.20;99.90;;;;;;2603203;54;20008;31
2023/08/20 09:45:18;;;;;;;6.65;6.05;;;31.60;99.90;;;;;;2602506;54;20882;31
2023/08/20 09:47:51;;;;;;;6.82;6.13;;;32.00;99.90;;;;;;2601888;54;19931;31
2023/08/20 09:50:27;;;;;;;6.57;5.90;;;32.30;99.90;;;;;;2601994;54;20063;31
2023/08/20 09:53:04;;;;;;;8.20;6.60;;;32.30;99.90;;;;;;2602745;54;20034;31
2023/08/20 09:55:37;;;;;;;5.55;5.05;;;32.30;99.90;;;;;;2604489;54;20856;31
2023/08/20 09:58:12;;;;;;;5.88;5.38;;;32.40;99.90;;;;;;2603713;54;20900;31
2023/08/20 10:00:47;;;;;;;7.27;6.20;;;32.60;99.90;;;;;;2603818;54;20034;31
2023/08/20 10:03:22;;;;;;;7.50;6.43;;;32.90;99.90;;;;;;2609977;46;20263;31
2023/08/20 10:05:59;;;;;;;7.78;6.97;;;33.00;99.90;;;;;;2604032;54;20658;31
2023/08/20 10:08:33;;;;;;;6.30;5.70;;;32.90;99.90;;;;;;2604037;54;20042;31
2023/08/20 10:11:07;;;;;;;7.93;6.63;;;32.90;99.90;;;;;;2603863;54;21044;31
2023/08/20 10:13:41;;;;;;;8.13;6.57;;;33.00;99.90;;;;;;2719702;39;20499;31
2023/08/20 10:16:22;;;;;;;7.93;6.28;;;33.10;99.90;;;;;;2621997;46;20045;31
2023/08/20 10:18:59;;;;;;;7.87;6.40;;;33.10;99.90;;;;;;2622153;46;20089;31
2023/08/20 10:21:36;;;;;;;8.50;6.55;;;33.10;99.90;;;;;;2603841;54;20597;31
2023/08/20 10:24:10;;;;;;;7.03;6.32;;;33.20;99.90;;;;;;2603317;54;20929;31
2023/08/20 10:26:45;;;;;;;7.60;6.95;;;33.30;99.90;;;;;;2603518;54;20031;31
2023/08/20 10:29:39;;;;;;;7.78;6.20;;;33.50;99.90;;;;;;2603227;54;20900;31
2023/08/20 10:32:16;;;;;;;9.15;6.05;;;33.50;99.90;;;;;;2620201;46;21563;31
2023/08/20 10:34:53;;;;;;;6.93;6.30;;;33.60;99.90;;;;;;2702100;39;22471;31
2023/08/20 10:37:34;;;;;;;7.30;6.40;;;33.70;99.90;;;;;;2622425;46;20792;31
2023/08/20 10:42:44;;;;;;;7.10;6.30;;;33.80;99.90;;;;;;2621972;46;20217;31
2023/08/20 10:45:19;;;;;;;7.63;6.30;;;33.90;99.90;;;;;;2603760;54;20052;31
2023/08/20 10:47:54;;;;;;;7.35;6.28;;;34.00;99.90;;;;;;2603695;54;20030;31
2023/08/20 10:50:28;;;;;;;;;;;34.10;99.90;;;;;;2604185;54;20036;31
2023/08/20 10:53:07;;;;;;;7.10;6.10;;;34.20;99.90;;;;;;2603655;54;21542;31
2023/08/20 10:55:41;;;;;;;8.48;7.00;;;34.20;99.90;;;;;;2603549;54;20054;31
2023/08/20 10:58:15;;;;;;;7.28;6.55;;;34.30;99.90;;;;;;2603700;54;20030;31
2023/08/20 11:01:22;;;;;;;7.80;6.90;;;34.30;99.90;;;;;;2603806;54;20561;31
2023/08/20 11:03:56;;;;;;;7.55;6.70;;;34.50;99.90;;;;;;2603345;54;20053;31
2023/08/20 11:06:32;;;;;;;10.25;6.20;;;34.60;99.90;;;;;;2603800;54;20034;31
2023/08/20 11:09:08;;;;;;;7.43;6.72;;;34.60;99.90;;;;;;2621766;46;21782;31
2023/08/20 11:11:41;;;;;;;9.37;6.67;;;34.70;99.90;;;;;;2603676;54;20907;31
2023/08/20 11:14:17;;;;;;;6.90;6.05;;;34.60;99.90;;;;;;2603654;54;19934;31
2023/08/20 11:16:51;;;;;;;6.47;5.90;;;34.70;99.90;;;;;;2603466;54;20030;31
2023/08/20 11:19:26;;;;;;;9.57;6.70;;;34.70;99.90;;;;;;2603535;54;20789;31
2023/08/20 11:22:01;;;;;;;8.52;6.32;;;34.60;99.90;;;;;;2603691;54;20026;31
2023/08/20 11:24:39;;;;;;;7.95;6.03;;;34.70;99.90;;;;;;2619930;46;20773;31
2023/08/20 11:27:13;;;;;;;7.25;6.65;;;34.70;99.90;;;;;;2603716;54;20595;31
2023/08/20 11:29:48;;;;;;;6.95;6.35;;;34.60;99.90;;;;;;2621996;46;20045;31
2023/08/20 11:32:21;;;;;;;9.25;6.55;;;34.70;99.90;;;;;;2603515;54;20752;31
2023/08/20 11:34:55;;;;;;;7.40;6.80;;;34.70;99.90;;;;;;2792363;31;21152;31
2023/08/20 11:37:30;;;;;;;8.23;7.03;;;34.70;99.90;;;;;;2603539;54;20030;31
2023/08/20 11:40:10;;;;;;;8.13;6.75;;;34.70;99.90;;;;;;2621997;46;20038;31
2023/08/20 11:42:44;;;;;;;10.45;7.40;;;34.60;99.90;;;;;;2622013;46;20064;31
2023/08/20 11:45:27;;;;;;;7.43;6.63;;;34.60;99.90;;;;;;2603649;54;20058;31
2023/08/20 11:48:02;;;;;;;7.35;6.40;;;34.70;99.90;;;;;;2603574;54;20974;31
2023/08/20 11:50:37;;;;;;;6.97;6.37;;;34.70;99.90;;;;;;2720736;39;21044;31
2023/08/20 11:53:12;;;;;;;8.95;6.75;;;34.70;99.90;;;;;;2603653;54;20859;31
2023/08/20 11:55:49;;;;;;;6.68;6.00;;;34.60;99.90;;;;;;2621800;46;21663;31
2023/08/20 11:58:24;;;;;;;6.43;5.82;;;34.60;99.90;;;;;;2603376;54;20037;31
2023/08/20 12:00:58;;;;;;;7.50;5.90;;;34.60;99.90;;;;;;2603479;54;20033;31
2023/08/20 12:03:34;;;;;;;7.28;6.28;;;34.50;99.90;;;;;;2603548;54;20054;31
2023/08/20 12:06:21;;;;;;;5.90;5.40;;;34.50;99.90;;;;;;2603428;54;20797;31
2023/08/20 12:08:55;;;;;;;6.90;6.30;;;34.50;99.90;;;;;;2603404;54;20306;31
2023/08/20 12:11:33;;;;;;;7.13;6.20;;;34.50;99.90;;;;;;2603363;54;20960;31
2023/08/20 12:14:07;;;;;;;7.65;6.45;;;34.30;99.90;;;;;;2603429;54;20038;31
2023/08/20 12:16:42;;;;;;;7.27;5.53;;;34.40;99.90;;;;;;2602765;54;20821;31
2023/08/20 12:19:19;;;;;;;6.72;5.97;;;34.30;99.90;;;;;;2621697;46;21632;31
2023/08/20 12:21:51;;;;;;;6.70;6.10;;;34.40;99.90;;;;;;2621964;46;20056;31
2023/08/20 12:24:26;;;;;;;7.18;6.47;;;34.30;99.90;;;;;;2603751;54;20026;31
2023/08/20 12:27:03;;;;;;;12.45;5.95;;;34.30;99.90;;;;;;2603362;54;20023;31
2023/08/20 12:29:38;;;;;;;6.25;5.78;;;34.30;99.90;;;;;;2603436;54;20057;31
2023/08/20 12:32:12;;;;;;;;;;;34.20;99.90;;;;;;2603591;54;21004;31
2023/08/20 12:34:47;;;;;;;9.52;6.43;;;34.10;99.90;;;;;;2621957;46;19943;31
2023/08/20 12:37:21;;;;;;;;;;;34.20;99.90;;;;;;2603583;54;20592;31
2023/08/20 12:39:56;;;;;;;5.90;5.40;;;34.20;99.90;;;;;;2603303;54;19942;31
2023/08/20 12:42:34;;;;;;;6.63;5.68;;;34.10;99.90;;;;;;2622313;46;20022;31
2023/08/20 12:45:10;;;;;;;6.60;6.10;;;34.10;99.90;;;;;;2603390;54;20008;31
2023/08/20 12:47:43;;;;;;;;;;;34.10;99.90;;;;;;2603503;54;20085;31
2023/08/20 12:50:18;;;;;;;6.00;5.40;;;34.00;97.90;;;;;;2603392;54;19981;31
2023/08/20 12:52:53;;;;;;;7.45;5.75;;;34.00;98.60;;;;;;2603350;54;20831;31
2023/08/20 12:55:27;;;;;;;6.35;5.32;;;33.90;99.90;;;;;;2603236;54;20924;31
2023/08/20 12:58:05;;;;;;;6.90;5.40;;;33.80;99.90;;;;;;2603032;54;20027;31
2023/08/20 13:00:40;;;;;;;5.57;5.07;;;33.80;98.70;;;;;;2603191;54;20026;31
2023/08/20 13:03:16;;;;;;;6.35;5.75;;;33.80;99.60;;;;;;2621740;47;20038;31
2023/08/20 13:05:51;;;;;;;6.78;5.95;;;33.80;98.90;;;;;;2603106;54;20980;31
2023/08/20 13:08:26;;;;;;;5.83;5.23;;;33.80;98.30;;;;;;2603193;54;20030;31
2023/08/20 13:11:00;;;;;;;;;;;33.70;99.70;;;;;;2603627;54;20030;31
2023/08/20 13:13:37;;;;;;;7.20;5.10;;;33.70;99.10;;;;;;2603315;54;20724;31
2023/08/20 13:16:13;;;;;;;7.28;5.30;;;33.60;98.90;;;;;;2603508;54;20112;31
2023/08/20 13:18:48;;;;;;;5.07;4.57;;;33.60;98.70;;;;;;2603313;54;20042;31
2023/08/20 13:21:22;;;;;;;5.05;4.55;;;33.60;98.50;;;;;;2603139;54;20048;31
2023/08/20 13:23:57;;;;;;;5.20;4.70;;;33.50;98.20;;;;;;2621548;47;20033;31
2023/08/20 13:26:31;;;;;;;;;;;33.50;98.90;;;;;;2603519;54;20136;31
2023/08/20 13:29:10;;;;;;;6.43;5.82;;;33.50;98.60;;;;;;2603858;54;19989;31
2023/08/20 13:31:44;;;;;;;5.18;4.72;;;33.40;98.40;;;;;;2603942;54;20048;31
2023/08/20 13:34:19;;;;;;;5.93;5.05;;;33.40;99.70;;;;;;2622160;46;20049;31
2023/08/20 13:36:53;;;;;;;6.00;4.95;;;33.50;97.50;;;;;;2622628;46;20103;31